Time;durP1;ratioP1;P1;durP2;ratioP2;P2;SDS_P1;SDS_P2;PMS_P1;PMS_P2;Temp;Humidity;BMP_temperature;BMP_pressure;BME280_temperature;BME280_humidity;BME280_pressure;Samples;Min_cycle;Max_cycle;Signal;HPM_P1;HPM_P2
2020/12/12 04:09:31;;;;;;;8.63;6.57;;;5.30;96.10;;;;;;4872967;29;20280;-80
2020/12/12 04:12:08;;;;;;;11.52;7.18;;;5.30;96.20;;;;;;4869826;29;20214;-79
2020/12/12 04:31:12;;;;;;;9.70;7.55;;;5.30;98.10;;;;;;4904804;29;20226;-80
2020/12/12 04:34:10;;;;;;;9.40;7.45;;;5.40;98.60;;;;;;4908428;29;20218;-80
2020/12/12 04:37:19;;;;;;;11.13;7.82;;;5.50;98.70;;;;;;4908316;29;20228;-80
2020/12/12 04:40:03;;;;;;;9.40;7.90;;;5.30;98.30;;;;;;4886336;29;20248;-79
2020/12/12 04:42:50;;;;;;;10.32;7.65;;;5.30;98.80;;;;;;4907049;29;20206;-80
2020/12/12 04:45:42;;;;;;;12.52;8.57;;;5.30;98.90;;;;;;4940459;28;20194;-80
2020/12/12 04:55:13;;;;;;;9.88;8.00;;;5.30;99.60;;;;;;5015619;28;20205;-80
2020/12/12 05:01:51;;;;;;;11.35;8.70;;;5.40;99.90;;;;;;4967916;29;20606;-80
2020/12/12 05:04:31;;;;;;;13.77;9.02;;;5.40;99.80;;;;;;4962058;29;20592;-80
2020/12/12 05:07:45;;;;;;;12.60;8.95;;;5.40;99.90;;;;;;4931034;29;20246;-80
2020/12/12 05:10:18;;;;;;;12.88;8.45;;;5.30;99.90;;;;;;4938068;29;20516;-81
2020/12/12 08:06:26;;;;;;;16.17;11.73;;;5.80;99.90;;;;;;4989227;28;20214;-78
2020/12/12 08:08:58;;;;;;;16.63;11.32;;;5.80;99.90;;;;;;4997411;28;20223;-79
2020/12/12 08:11:24;;;;;;;19.27;11.80;;;5.90;99.90;;;;;;4987577;28;20654;-78
2020/12/12 08:13:52;;;;;;;17.15;11.38;;;5.90;99.90;;;;;;4981144;28;20267;-80
2020/12/12 08:16:23;;;;;;;16.60;10.80;;;6.10;99.90;;;;;;4980227;28;20222;-80
2020/12/12 08:18:50;;;;;;;13.77;9.30;;;6.10;99.90;;;;;;4980526;28;20241;-80
2020/12/12 08:21:20;;;;;;;14.60;10.80;;;6.20;99.90;;;;;;4996041;28;20287;-80
2020/12/12 08:23:48;;;;;;;13.15;10.32;;;6.30;99.90;;;;;;4999081;28;20206;-78
2020/12/12 08:26:21;;;;;;;14.65;9.98;;;6.30;99.90;;;;;;4969090;28;20627;-80
2020/12/12 08:28:49;;;;;;;17.08;11.43;;;6.30;99.90;;;;;;4967916;28;20212;-81
2020/12/12 08:31:23;;;;;;;12.20;9.75;;;6.40;99.90;;;;;;4966878;28;20234;-80
2020/12/12 08:33:55;;;;;;;15.32;11.25;;;6.30;99.90;;;;;;4961467;29;20263;-80
2020/12/12 08:36:24;;;;;;;12.48;9.73;;;6.30;99.90;;;;;;4961225;29;20294;-80
2020/12/12 08:38:54;;;;;;;15.63;10.73;;;6.50;99.90;;;;;;4981932;28;20274;-81
2020/12/12 08:41:27;;;;;;;13.52;10.02;;;6.60;99.90;;;;;;4981568;28;20682;-79
2020/12/12 08:43:54;;;;;;;17.25;10.40;;;6.70;99.90;;;;;;4962516;28;20667;-80
2020/12/12 08:46:20;;;;;;;18.80;12.18;;;6.80;99.90;;;;;;4973639;28;20233;-80
2020/12/12 08:48:47;;;;;;;15.15;10.00;;;6.70;99.90;;;;;;4981760;28;20207;-78
2020/12/12 08:51:14;;;;;;;13.85;10.95;;;6.60;99.90;;;;;;4974943;28;20246;-80
2020/12/12 08:53:42;;;;;;;13.60;9.73;;;6.80;99.90;;;;;;4963179;28;20208;-80
2020/12/12 08:56:15;;;;;;;17.13;9.85;;;7.00;99.50;;;;;;4962076;28;20763;-81
2020/12/12 08:58:48;;;;;;;11.88;9.70;;;7.00;99.30;;;;;;4965271;28;20645;-80
2020/12/12 09:01:21;;;;;;;12.48;9.35;;;7.10;99.00;;;;;;4964197;28;20245;-80
2020/12/12 09:03:56;;;;;;;12.50;9.05;;;7.00;98.10;;;;;;4982460;28;20222;-79
2020/12/12 09:06:32;;;;;;;12.02;9.18;;;7.00;98.10;;;;;;4984400;28;20199;-82
2020/12/12 09:09:13;;;;;;;12.65;10.02;;;7.10;97.80;;;;;;4976806;28;20270;-80
2020/12/12 09:11:42;;;;;;;12.23;9.40;;;7.20;97.80;;;;;;4985203;28;20200;-82
2020/12/12 09:14:09;;;;;;;14.30;9.57;;;7.20;97.40;;;;;;4967936;28;20203;-80
2020/12/12 09:16:37;;;;;;;14.48;10.07;;;7.20;97.20;;;;;;4977665;28;20232;-81
2020/12/12 09:19:05;;;;;;;12.20;9.18;;;7.10;96.80;;;;;;4976948;28;20200;-81
2020/12/12 09:21:36;;;;;;;12.85;10.55;;;7.20;97.10;;;;;;4987790;28;20215;-80
2020/12/12 09:24:05;;;;;;;13.60;10.00;;;7.20;96.70;;;;;;4977510;28;20246;-80
2020/12/12 09:26:31;;;;;;;11.23;10.02;;;7.20;96.40;;;;;;4971442;28;20231;-80
2020/12/12 09:28:59;;;;;;;12.15;9.00;;;7.30;96.70;;;;;;4974685;28;20231;-81
2020/12/12 09:31:26;;;;;;;12.10;9.55;;;7.30;96.70;;;;;;4975681;28;20203;-80
2020/12/12 09:33:53;;;;;;;15.48;10.70;;;7.40;97.00;;;;;;4970984;28;20200;-81
2020/12/12 09:36:20;;;;;;;14.07;10.38;;;7.60;96.60;;;;;;4965644;28;20238;-84
2020/12/12 09:38:47;;;;;;;14.65;10.40;;;7.60;96.20;;;;;;4993654;28;20215;-81
2020/12/12 09:41:14;;;;;;;11.50;10.05;;;7.70;96.80;;;;;;4981683;28;20219;-81
2020/12/12 09:43:41;;;;;;;11.50;8.65;;;7.80;96.10;;;;;;4980780;28;20211;-79
2020/12/12 09:46:09;;;;;;;12.48;8.93;;;7.90;95.30;;;;;;4995421;28;20234;-80
2020/12/12 09:48:36;;;;;;;12.82;9.27;;;7.90;94.50;;;;;;4986020;28;20617;-83
2020/12/12 09:51:03;;;;;;;10.52;8.75;;;7.90;94.50;;;;;;4982697;28;20228;-80
2020/12/12 09:53:30;;;;;;;13.40;8.63;;;7.80;94.20;;;;;;4974275;28;20210;-80
2020/12/12 09:55:57;;;;;;;10.88;8.25;;;7.90;94.50;;;;;;4973409;28;20478;-82
2020/12/12 09:58:24;;;;;;;10.70;7.57;;;7.90;94.00;;;;;;4973526;28;20287;-80
2020/12/12 10:00:52;;;;;;;11.90;7.93;;;7.80;94.50;;;;;;4983129;28;20201;-80
2020/12/12 10:03:20;;;;;;;11.10;8.75;;;7.70;94.40;;;;;;4977707;28;20184;-80
2020/12/12 10:05:46;;;;;;;10.93;9.20;;;7.50;95.50;;;;;;4985121;28;20207;-78
2020/12/12 10:08:13;;;;;;;10.98;9.40;;;7.60;96.20;;;;;;4980888;28;20227;-81
2020/12/12 10:10:40;;;;;;;11.68;8.73;;;7.70;96.40;;;;;;4989779;28;20245;-78
2020/12/12 10:13:06;;;;;;;13.73;8.90;;;7.70;96.60;;;;;;4978310;28;20201;-79
2020/12/12 10:15:34;;;;;;;14.30;10.40;;;7.80;96.60;;;;;;4981753;28;20214;-79
2020/12/12 10:18:00;;;;;;;10.52;8.38;;;7.80;96.90;;;;;;4981287;28;20227;-80
2020/12/12 10:20:27;;;;;;;11.10;8.88;;;7.90;96.90;;;;;;4974861;28;20219;-82
2020/12/12 10:22:54;;;;;;;10.25;7.22;;;7.70;96.50;;;;;;4983146;28;20229;-83
2020/12/12 10:25:21;;;;;;;7.50;6.25;;;7.80;97.10;;;;;;4983673;28;20213;-81
2020/12/12 10:27:48;;;;;;;6.85;5.88;;;7.90;96.80;;;;;;4970324;28;20230;-81
2020/12/12 10:30:14;;;;;;;8.32;6.18;;;7.90;96.70;;;;;;4982449;28;20300;-79
2020/12/12 10:32:43;;;;;;;5.95;5.10;;;7.90;96.90;;;;;;4964150;28;20583;-79
2020/12/12 10:35:19;;;;;;;6.50;5.25;;;8.00;96.50;;;;;;4962945;28;20246;-80
2020/12/12 10:37:47;;;;;;;6.80;5.72;;;8.10;96.30;;;;;;4968401;28;20233;-82
2020/12/12 10:40:18;;;;;;;6.55;5.20;;;8.10;95.90;;;;;;4964594;28;20218;-79
2020/12/12 10:42:44;;;;;;;4.72;4.32;;;8.00;96.10;;;;;;4965210;28;20198;-81
2020/12/12 10:45:11;;;;;;;9.75;5.18;;;8.00;96.30;;;;;;4970336;28;20207;-78
2020/12/12 10:47:38;;;;;;;7.22;4.15;;;8.00;96.80;;;;;;4973327;28;20290;-78
2020/12/12 10:50:05;;;;;;;4.57;4.00;;;8.10;97.30;;;;;;4970993;28;20267;-80
2020/12/12 10:52:32;;;;;;;4.45;3.78;;;8.00;97.70;;;;;;4988400;28;20258;-80
2020/12/12 10:54:59;;;;;;;4.47;3.53;;;8.00;98.10;;;;;;4990079;28;20336;-81
2020/12/12 10:57:26;;;;;;;3.92;3.17;;;8.00;98.70;;;;;;4988184;28;20233;-79
2020/12/12 10:59:56;;;;;;;2.95;2.70;;;8.00;99.30;;;;;;4980931;28;20204;-81
2020/12/12 11:02:22;;;;;;;7.60;3.40;;;8.00;99.80;;;;;;4981946;28;20257;-81
2020/12/12 11:04:49;;;;;;;4.82;3.15;;;8.00;99.90;;;;;;4998797;28;20237;-78
2020/12/12 11:07:24;;;;;;;2.95;2.72;;;7.90;99.90;;;;;;5000150;28;20234;-81
2020/12/12 11:09:51;;;;;;;3.30;3.03;;;8.00;99.90;;;;;;5014578;23;20236;-79
2020/12/12 11:12:18;;;;;;;3.60;3.15;;;8.00;99.90;;;;;;4992620;28;20203;-80
2020/12/12 11:14:47;;;;;;;3.45;3.15;;;8.00;99.90;;;;;;4998891;28;20681;-80
2020/12/12 11:17:13;;;;;;;3.25;2.92;;;8.00;99.90;;;;;;4984406;28;20209;-80
2020/12/12 11:19:40;;;;;;;5.15;3.63;;;8.00;99.90;;;;;;4973930;28;20222;-80
2020/12/12 11:22:06;;;;;;;4.40;3.65;;;7.90;99.90;;;;;;4984700;28;20207;-80
2020/12/12 11:24:32;;;;;;;4.97;4.45;;;8.00;99.90;;;;;;4992489;28;20315;-80
2020/12/12 11:26:59;;;;;;;5.10;4.60;;;8.00;99.90;;;;;;4980799;28;20268;-80
2020/12/12 11:29:26;;;;;;;6.32;4.95;;;8.00;99.90;;;;;;4990115;28;20228;-81
2020/12/12 11:31:54;;;;;;;4.80;4.40;;;8.00;99.90;;;;;;4984365;28;20196;-79
2020/12/12 11:34:24;;;;;;;5.80;4.43;;;8.00;99.90;;;;;;4971871;28;20629;-79
2020/12/12 11:37:10;;;;;;;5.13;4.63;;;8.00;99.90;;;;;;4969495;28;20243;-79
2020/12/12 11:39:43;;;;;;;8.85;5.38;;;8.00;99.90;;;;;;4975493;28;20213;-79
2020/12/12 11:47:53;;;;;;;7.10;6.05;;;8.10;99.90;;;;;;4924589;29;20522;-82
2020/12/12 11:50:20;;;;;;;6.68;6.10;;;8.00;99.90;;;;;;4939950;28;20211;-80
2020/12/12 11:52:46;;;;;;;5.75;5.25;;;8.10;99.90;;;;;;4939046;28;20197;-82
2020/12/12 11:55:13;;;;;;;8.25;6.13;;;8.10;99.90;;;;;;4935312;28;20248;-79
2020/12/12 11:57:39;;;;;;;5.75;5.03;;;8.10;99.90;;;;;;4922957;29;20213;-79
2020/12/12 12:00:09;;;;;;;6.05;5.50;;;8.10;99.90;;;;;;4925738;29;20233;-79
2020/12/12 12:02:36;;;;;;;6.75;6.07;;;8.10;99.90;;;;;;4915909;29;20217;-81
2020/12/12 12:05:04;;;;;;;7.47;6.72;;;8.20;99.90;;;;;;4914082;29;20253;-81
2020/12/12 12:07:31;;;;;;;7.35;6.65;;;8.20;99.90;;;;;;4901326;29;20238;-77
2020/12/12 12:10:07;;;;;;;7.32;6.63;;;8.40;99.90;;;;;;4908251;29;20306;-77
2020/12/12 12:12:33;;;;;;;9.10;7.03;;;8.40;99.90;;;;;;4909669;29;20770;-78
2020/12/12 12:15:00;;;;;;;8.20;6.40;;;8.50;99.90;;;;;;4904592;29;20260;-78
2020/12/12 12:17:26;;;;;;;7.88;7.07;;;8.60;99.90;;;;;;4970137;28;20197;-78
2020/12/12 12:19:54;;;;;;;7.47;6.70;;;8.60;99.90;;;;;;4992937;28;20219;-77
2020/12/12 12:22:20;;;;;;;6.57;5.75;;;8.60;99.90;;;;;;4959300;28;20291;-77
2020/12/12 12:24:46;;;;;;;6.32;5.82;;;8.70;99.90;;;;;;4958645;28;20212;-77
2020/12/12 12:27:13;;;;;;;7.10;6.50;;;8.70;99.90;;;;;;4959377;28;20208;-78
2020/12/12 12:29:39;;;;;;;6.78;6.07;;;8.70;99.90;;;;;;4959601;28;20231;-77
2020/12/12 12:32:06;;;;;;;7.38;6.10;;;8.80;99.90;;;;;;4960222;28;20297;-77
2020/12/12 12:34:32;;;;;;;6.40;5.80;;;8.80;99.80;;;;;;4958829;28;20219;-77
2020/12/12 12:36:59;;;;;;;9.02;6.45;;;8.90;99.70;;;;;;4958624;28;20279;-79
2020/12/12 12:39:26;;;;;;;6.18;4.72;;;8.90;99.40;;;;;;4960818;28;20351;-78
2020/12/12 12:41:52;;;;;;;7.72;5.10;;;8.90;98.40;;;;;;4958755;28;20238;-77
2020/12/12 12:44:19;;;;;;;6.55;4.30;;;8.80;97.90;;;;;;4956572;28;20231;-77
2020/12/12 12:46:48;;;;;;;6.55;4.88;;;8.80;97.90;;;;;;4958912;28;20206;-77
2020/12/12 12:49:15;;;;;;;4.28;3.85;;;8.80;98.00;;;;;;4958407;28;20227;-77
2020/12/12 12:51:41;;;;;;;4.70;4.30;;;8.70;97.90;;;;;;4955245;28;20305;-77
2020/12/12 12:54:09;;;;;;;5.25;4.40;;;8.70;98.40;;;;;;4955247;28;20212;-77
2020/12/12 12:56:36;;;;;;;4.32;3.97;;;8.70;98.40;;;;;;4936872;28;20237;-78
2020/12/12 12:59:03;;;;;;;5.20;4.70;;;8.70;98.40;;;;;;4937720;29;20226;-78
2020/12/12 13:01:29;;;;;;;5.45;3.85;;;8.70;98.40;;;;;;4936289;29;20554;-79
2020/12/12 13:03:55;;;;;;;5.95;3.95;;;8.70;98.40;;;;;;4936884;29;20254;-79
2020/12/12 13:06:23;;;;;;;5.00;4.45;;;8.70;98.30;;;;;;4945493;29;20205;-77
2020/12/12 13:08:57;;;;;;;5.75;4.40;;;8.70;98.40;;;;;;4953836;29;20241;-80
2020/12/12 13:16:35;;;;;;;5.85;4.45;;;8.60;98.90;;;;;;5093168;23;20271;-80
2020/12/12 13:19:06;;;;;;;5.18;3.95;;;8.60;99.40;;;;;;4936433;28;20269;-83
2020/12/12 13:21:45;;;;;;;6.70;3.85;;;8.60;99.30;;;;;;4934355;29;20194;-81
2020/12/12 13:24:16;;;;;;;7.63;4.05;;;8.50;99.60;;;;;;4935194;29;20225;-81
2020/12/12 13:26:43;;;;;;;10.80;3.92;;;8.50;99.90;;;;;;4930693;29;20193;-80
2020/12/12 13:31:54;;;;;;;4.35;3.95;;;8.50;99.90;;;;;;4932252;29;20223;-81
2020/12/12 13:34:21;;;;;;;4.30;3.90;;;8.50;99.90;;;;;;4930924;29;20218;-80
2020/12/12 13:36:54;;;;;;;6.72;3.85;;;8.50;99.90;;;;;;4924075;29;20625;-80
2020/12/12 13:39:23;;;;;;;4.53;3.92;;;8.50;99.90;;;;;;4924574;29;20233;-81
2020/12/12 13:42:02;;;;;;;7.95;4.60;;;8.50;99.90;;;;;;4924863;29;20311;-81
2020/12/12 13:44:43;;;;;;;4.32;3.50;;;8.50;99.90;;;;;;4925044;29;20813;-81
2020/12/12 13:47:16;;;;;;;5.22;4.07;;;8.60;99.90;;;;;;4932733;29;20214;-81
2020/12/12 13:49:43;;;;;;;8.32;5.72;;;8.60;99.90;;;;;;4935994;29;20213;-82
2020/12/12 13:52:10;;;;;;;3.90;3.60;;;8.60;99.90;;;;;;4934999;29;20204;-82
2020/12/12 13:54:37;;;;;;;5.32;3.88;;;8.60;99.90;;;;;;4919770;29;20270;-81
2020/12/12 13:57:03;;;;;;;5.68;3.60;;;8.70;99.90;;;;;;4918192;29;20242;-84
2020/12/12 13:59:29;;;;;;;4.40;4.00;;;8.60;99.80;;;;;;4915447;29;20265;-81
2020/12/12 14:01:56;;;;;;;4.85;3.80;;;8.60;99.70;;;;;;4909860;29;20250;-80
2020/12/12 14:04:23;;;;;;;5.35;3.40;;;8.60;99.80;;;;;;4910558;29;20232;-82
2020/12/12 14:06:52;;;;;;;3.58;3.25;;;8.70;99.60;;;;;;4913341;29;20232;-83
2020/12/12 14:23:08;;;;;;;2.88;2.55;;;8.60;98.30;;;;;;4912500;29;20210;-82
2020/12/12 14:25:40;;;;;;;3.28;2.97;;;8.60;97.80;;;;;;4913818;29;20206;-80
2020/12/12 14:28:21;;;;;;;4.38;3.30;;;8.60;98.10;;;;;;4914293;29;20612;-82
2020/12/12 14:30:54;;;;;;;2.92;2.63;;;8.60;97.90;;;;;;4916640;29;20277;-82
2020/12/12 14:33:22;;;;;;;3.38;3.00;;;8.60;97.50;;;;;;4916981;29;20227;-82
2020/12/12 14:36:07;;;;;;;3.30;2.90;;;8.60;97.60;;;;;;4918610;29;20236;-84
2020/12/12 14:38:34;;;;;;;7.28;3.33;;;8.60;97.50;;;;;;4921037;29;20749;-82
2020/12/12 14:41:01;;;;;;;4.15;3.45;;;8.60;97.30;;;;;;4918029;29;20217;-81
2020/12/12 14:43:27;;;;;;;3.65;2.75;;;8.60;97.30;;;;;;4914761;29;20220;-80
2020/12/12 14:45:54;;;;;;;3.53;2.30;;;8.60;97.20;;;;;;4915255;29;20208;-79
2020/12/12 14:48:20;;;;;;;4.18;2.90;;;8.60;97.20;;;;;;4914291;29;20695;-81
2020/12/12 14:50:50;;;;;;;3.25;2.60;;;8.60;97.00;;;;;;4921198;29;20210;-80
2020/12/12 14:53:18;;;;;;;3.13;2.92;;;8.60;97.40;;;;;;4917113;29;20229;-81
2020/12/12 14:55:48;;;;;;;7.18;3.63;;;8.40;97.80;;;;;;4918237;29;20249;-80
2020/12/12 14:58:14;;;;;;;3.90;3.08;;;8.30;98.20;;;;;;5008749;23;20275;-81
2020/12/12 15:00:43;;;;;;;4.90;3.53;;;8.30;99.00;;;;;;4934329;29;20202;-82
2020/12/12 15:03:10;;;;;;;2.92;2.65;;;8.30;99.70;;;;;;4932868;29;20227;-83
2020/12/12 15:05:39;;;;;;;3.08;2.85;;;8.30;99.90;;;;;;4931736;29;20202;-80
2020/12/12 15:08:06;;;;;;;4.28;3.60;;;8.30;99.90;;;;;;4937034;29;20225;-81
2020/12/12 15:10:36;;;;;;;4.32;3.35;;;8.30;99.90;;;;;;4935289;29;20264;-79
2020/12/12 15:13:03;;;;;;;3.85;3.10;;;8.20;99.90;;;;;;4935766;29;20269;-80
2020/12/12 15:15:29;;;;;;;3.28;2.97;;;8.20;99.90;;;;;;4935444;29;20239;-81
2020/12/12 15:17:56;;;;;;;4.00;3.35;;;8.10;99.90;;;;;;4916366;29;20482;-80
2020/12/12 15:20:41;;;;;;;4.22;3.35;;;8.10;99.90;;;;;;4918492;29;20311;-83
2020/12/12 15:23:08;;;;;;;6.30;3.55;;;8.10;99.90;;;;;;4919228;29;20275;-81
2020/12/12 15:25:36;;;;;;;3.65;3.20;;;8.10;99.90;;;;;;4920817;29;20218;-81
2020/12/12 15:28:04;;;;;;;4.25;3.63;;;8.10;99.90;;;;;;4918866;29;20206;-80
2020/12/12 15:30:35;;;;;;;4.65;4.25;;;8.10;99.90;;;;;;4913041;29;20295;-82
2020/12/12 15:33:03;;;;;;;4.05;3.65;;;8.00;99.90;;;;;;4912794;29;20205;-81
2020/12/12 15:35:29;;;;;;;4.25;3.85;;;8.10;99.90;;;;;;4911131;29;20214;-80
2020/12/12 15:38:01;;;;;;;4.70;4.00;;;8.00;99.90;;;;;;4909212;29;20216;-79
2020/12/12 15:40:28;;;;;;;4.85;4.45;;;8.10;99.90;;;;;;4907021;29;20243;-80
2020/12/12 15:42:56;;;;;;;5.32;4.82;;;8.00;99.90;;;;;;4903968;29;20205;-81
2020/12/12 15:45:22;;;;;;;6.13;5.05;;;8.10;99.90;;;;;;4902957;29;20211;-79
2020/12/12 15:47:49;;;;;;;6.20;5.60;;;8.00;99.90;;;;;;4902837;29;20242;-80
2020/12/12 15:50:18;;;;;;;5.95;5.45;;;8.00;99.90;;;;;;4902725;29;20226;-79
2020/12/12 15:52:50;;;;;;;6.75;5.20;;;8.00;99.90;;;;;;4903313;29;20649;-79
2020/12/12 15:55:17;;;;;;;6.60;5.85;;;8.00;99.90;;;;;;4902218;29;20224;-81
2020/12/12 15:57:43;;;;;;;6.25;5.63;;;8.00;99.90;;;;;;4902854;29;20241;-80
2020/12/12 16:00:11;;;;;;;7.13;6.45;;;8.00;99.90;;;;;;4904063;29;20328;-80
2020/12/12 16:02:37;;;;;;;7.55;6.47;;;8.00;99.90;;;;;;4906320;29;20251;-81
2020/12/12 16:05:05;;;;;;;6.70;6.10;;;8.00;99.90;;;;;;4906498;29;20217;-80
2020/12/12 16:07:32;;;;;;;7.78;6.05;;;8.00;99.90;;;;;;4905459;29;20273;-80
2020/12/12 16:09:58;;;;;;;8.38;7.60;;;8.00;99.90;;;;;;4904459;29;20600;-80
2020/12/12 16:12:45;;;;;;;9.27;7.90;;;8.10;99.90;;;;;;4903769;29;20256;-81
2020/12/12 16:15:14;;;;;;;8.75;7.85;;;8.10;99.90;;;;;;4905195;29;20199;-79
2020/12/12 16:17:41;;;;;;;11.27;9.15;;;8.10;99.90;;;;;;4912549;29;20233;-81
2020/12/12 16:20:08;;;;;;;8.95;8.05;;;8.00;99.90;;;;;;4912798;29;20248;-80
2020/12/12 16:22:34;;;;;;;9.77;8.18;;;8.10;99.90;;;;;;4904928;29;20209;-80
2020/12/12 16:25:01;;;;;;;9.45;8.45;;;8.00;99.90;;;;;;4907986;29;20228;-80
2020/12/12 16:27:31;;;;;;;11.15;8.63;;;8.10;99.90;;;;;;4914500;29;20213;-82
2020/12/12 16:29:58;;;;;;;11.07;9.85;;;8.00;99.90;;;;;;4912805;29;20245;-83
2020/12/12 16:32:25;;;;;;;10.73;9.50;;;8.10;99.90;;;;;;4907943;29;20207;-81
2020/12/12 16:34:52;;;;;;;12.40;10.48;;;8.10;99.90;;;;;;4910025;29;20217;-81
2020/12/12 16:37:19;;;;;;;11.30;9.27;;;8.10;99.90;;;;;;4908452;29;20241;-81
2020/12/12 16:39:45;;;;;;;10.40;9.27;;;8.10;99.90;;;;;;4906525;29;20261;-81
2020/12/12 16:42:12;;;;;;;11.13;9.90;;;8.00;99.90;;;;;;4906146;29;20216;-82
2020/12/12 16:44:39;;;;;;;11.88;10.65;;;8.10;99.90;;;;;;4906675;29;20209;-83
2020/12/12 16:47:06;;;;;;;11.75;9.50;;;8.10;99.90;;;;;;4907466;29;20217;-82
2020/12/12 16:49:33;;;;;;;13.25;10.32;;;8.00;99.90;;;;;;4907553;29;20256;-83
2020/12/12 16:52:03;;;;;;;11.05;9.88;;;8.00;99.90;;;;;;4906419;29;20276;-81
2020/12/12 16:54:32;;;;;;;12.43;9.70;;;8.00;99.90;;;;;;4908180;29;20234;-81
2020/12/12 16:56:59;;;;;;;11.23;10.02;;;8.00;99.90;;;;;;4906149;29;20229;-82
2020/12/12 16:59:25;;;;;;;11.32;9.90;;;8.00;99.90;;;;;;4907818;29;20325;-82
2020/12/12 17:01:52;;;;;;;11.35;10.20;;;8.00;99.90;;;;;;4906112;29;20597;-80
2020/12/12 17:04:21;;;;;;;14.27;11.60;;;8.00;99.90;;;;;;4910233;29;20221;-80
2020/12/12 17:06:52;;;;;;;12.50;10.05;;;8.00;99.90;;;;;;4915027;29;20217;-81
2020/12/12 17:09:19;;;;;;;12.13;10.93;;;8.00;99.90;;;;;;4915673;29;20301;-80
2020/12/12 17:11:47;;;;;;;13.18;10.80;;;8.00;99.90;;;;;;4917733;29;20241;-80
2020/12/12 17:14:25;;;;;;;14.13;11.63;;;8.00;99.90;;;;;;4918644;29;20222;-83
2020/12/12 17:16:52;;;;;;;12.32;11.13;;;8.00;99.90;;;;;;4918096;29;20271;-80
2020/12/12 17:19:18;;;;;;;12.60;11.27;;;8.00;99.90;;;;;;4918746;29;20225;-80
2020/12/12 17:21:45;;;;;;;12.85;10.95;;;8.00;99.90;;;;;;4917905;29;20208;-80
2020/12/12 17:24:15;;;;;;;11.43;10.23;;;8.00;99.90;;;;;;4917756;29;20201;-82
2020/12/12 17:26:42;;;;;;;16.45;12.45;;;8.00;99.90;;;;;;4920070;29;20214;-80
2020/12/12 17:29:10;;;;;;;17.48;11.27;;;8.00;99.90;;;;;;4918363;29;20218;-82
2020/12/12 17:31:38;;;;;;;13.95;11.25;;;8.00;99.90;;;;;;4920322;29;20213;-81
2020/12/12 17:34:06;;;;;;;11.93;10.57;;;8.00;99.90;;;;;;4920257;29;20198;-80
2020/12/12 17:36:36;;;;;;;14.82;11.50;;;8.00;99.90;;;;;;4917366;29;20238;-79
2020/12/12 17:39:03;;;;;;;14.25;10.93;;;8.00;99.90;;;;;;4918742;29;20214;-83
2020/12/12 17:41:32;;;;;;;12.38;11.07;;;8.00;99.90;;;;;;4919685;29;20190;-81
2020/12/12 17:43:59;;;;;;;15.15;11.77;;;8.00;99.90;;;;;;4918462;29;20234;-82
2020/12/12 17:46:26;;;;;;;12.98;11.63;;;7.90;99.90;;;;;;4919319;29;20202;-81
2020/12/12 17:49:10;;;;;;;17.40;15.18;;;7.90;99.90;;;;;;4919217;29;20270;-80
2020/12/12 17:51:48;;;;;;;16.08;12.18;;;7.90;99.90;;;;;;4918350;29;20221;-80
2020/12/12 17:54:14;;;;;;;13.85;12.20;;;8.00;99.90;;;;;;4919406;29;20215;-80
2020/12/12 17:56:48;;;;;;;16.63;12.50;;;8.00;99.90;;;;;;4918926;29;20284;-84
2020/12/12 17:59:15;;;;;;;14.10;12.35;;;8.00;99.90;;;;;;4915715;29;20254;-80
2020/12/12 18:01:43;;;;;;;18.42;13.13;;;8.00;99.90;;;;;;4912834;29;20214;-79
2020/12/12 18:04:13;;;;;;;12.48;11.27;;;8.00;99.90;;;;;;4916129;29;20203;-80
2020/12/12 18:06:41;;;;;;;15.10;12.82;;;8.00;99.90;;;;;;4920074;29;20259;-81
2020/12/12 18:09:07;;;;;;;13.02;11.18;;;8.10;99.90;;;;;;4918995;29;20234;-81
2020/12/12 18:11:34;;;;;;;15.65;12.13;;;8.00;99.90;;;;;;4918437;29;20214;-81
2020/12/12 18:14:02;;;;;;;13.73;11.70;;;8.00;99.90;;;;;;4917984;29;20200;-84
2020/12/12 18:16:28;;;;;;;16.20;13.07;;;8.00;99.90;;;;;;4916923;29;20240;-84
2020/12/12 18:18:55;;;;;;;15.88;12.77;;;8.00;99.90;;;;;;4918089;29;20291;-85
2020/12/12 18:21:25;;;;;;;15.70;12.80;;;8.00;99.90;;;;;;4914641;29;20229;-83
2020/12/12 18:23:52;;;;;;;14.23;12.73;;;8.00;99.90;;;;;;4910198;29;20232;-80
2020/12/12 18:26:21;;;;;;;13.68;11.50;;;8.10;99.90;;;;;;4909422;29;20234;-81
2020/12/12 18:28:48;;;;;;;12.35;10.63;;;8.10;99.90;;;;;;4910702;29;20238;-83
2020/12/12 18:31:17;;;;;;;14.18;11.20;;;8.10;99.90;;;;;;4911371;29;20208;-84
2020/12/12 18:33:45;;;;;;;12.98;10.70;;;8.10;99.90;;;;;;4920656;29;20283;-83
2020/12/12 18:36:11;;;;;;;11.48;10.27;;;8.10;99.90;;;;;;4918832;29;20228;-81
2020/12/12 18:38:38;;;;;;;11.73;10.27;;;8.10;99.90;;;;;;4913530;29;20238;-83
2020/12/12 18:41:04;;;;;;;13.88;11.60;;;8.10;99.90;;;;;;4912509;29;20218;-83
2020/12/12 18:43:31;;;;;;;13.68;12.15;;;8.10;99.90;;;;;;4913079;29;20210;-85
2020/12/12 18:45:57;;;;;;;12.13;10.55;;;8.10;99.90;;;;;;4911225;29;20214;-81
2020/12/12 18:48:25;;;;;;;13.68;11.20;;;8.10;99.90;;;;;;4908652;29;20221;-83
2020/12/12 18:50:51;;;;;;;12.43;10.10;;;8.10;99.90;;;;;;4911462;29;20829;-83
2020/12/12 18:53:18;;;;;;;16.02;12.05;;;8.10;99.90;;;;;;4913983;29;20323;-82
2020/12/12 18:55:44;;;;;;;14.25;10.77;;;8.10;99.90;;;;;;4916965;29;20214;-82
2020/12/12 18:58:11;;;;;;;12.65;10.20;;;8.10;99.90;;;;;;4915335;29;20214;-81
2020/12/12 19:00:45;;;;;;;11.93;10.38;;;8.00;99.90;;;;;;4927881;29;20210;-80
2020/12/12 19:03:12;;;;;;;11.63;10.20;;;8.10;99.90;;;;;;4924842;29;20244;-81
2020/12/12 19:05:39;;;;;;;11.63;10.43;;;8.10;99.90;;;;;;4929496;29;20209;-80
2020/12/12 19:08:06;;;;;;;11.90;10.38;;;8.00;99.90;;;;;;4935157;29;20233;-82
2020/12/12 19:10:36;;;;;;;11.73;9.82;;;8.00;99.90;;;;;;4932401;29;20225;-84
2020/12/12 19:13:18;;;;;;;10.55;9.45;;;8.00;99.90;;;;;;4934898;29;20204;-85
2020/12/12 19:15:45;;;;;;;10.77;9.70;;;8.00;99.90;;;;;;4939414;29;20223;-82
2020/12/12 19:18:12;;;;;;;11.43;10.07;;;8.00;99.90;;;;;;4933778;29;20209;-81
2020/12/12 19:21:24;;;;;;;12.00;10.30;;;7.90;99.90;;;;;;4934576;29;20219;-82
2020/12/12 19:23:54;;;;;;;12.63;10.98;;;8.00;99.90;;;;;;4929109;29;20240;-81
2020/12/12 19:26:29;;;;;;;10.70;9.60;;;8.00;99.90;;;;;;4933622;29;20345;-83
2020/12/12 19:28:56;;;;;;;12.15;10.82;;;8.00;99.90;;;;;;4935563;29;20218;-83
2020/12/12 19:31:23;;;;;;;12.10;10.73;;;8.00;99.90;;;;;;4932889;29;20215;-81
2020/12/12 19:34:08;;;;;;;12.70;11.30;;;8.00;99.90;;;;;;4928329;29;20217;-83
2020/12/12 19:36:36;;;;;;;11.43;9.93;;;8.00;99.90;;;;;;4928658;29;20718;-80
2020/12/12 19:39:05;;;;;;;13.40;11.55;;;8.00;99.90;;;;;;4929329;29;20260;-81
2020/12/12 19:42:17;;;;;;;13.13;11.75;;;8.00;99.90;;;;;;4930651;29;20210;-83
2020/12/12 19:44:44;;;;;;;13.18;10.48;;;8.10;99.90;;;;;;4891297;29;20249;-82
2020/12/12 19:47:17;;;;;;;13.52;11.27;;;8.00;99.90;;;;;;4892740;29;20213;-83
2020/12/12 19:49:44;;;;;;;11.82;10.55;;;8.00;99.90;;;;;;4899513;29;20246;-80
2020/12/12 19:52:13;;;;;;;12.50;10.50;;;8.10;99.90;;;;;;4892338;29;20234;-81
2020/12/12 19:54:41;;;;;;;13.40;11.10;;;8.10;99.90;;;;;;4890977;29;20239;-82
2020/12/12 19:57:10;;;;;;;12.35;11.02;;;8.10;99.90;;;;;;4890286;29;20656;-82
2020/12/12 19:59:36;;;;;;;12.48;10.85;;;8.00;99.90;;;;;;4892908;29;20354;-83
2020/12/12 20:02:04;;;;;;;12.70;11.40;;;8.00;99.90;;;;;;4892243;29;20234;-81
2020/12/12 20:04:38;;;;;;;16.08;11.43;;;8.10;99.90;;;;;;4894218;29;20240;-81
2020/12/12 20:07:08;;;;;;;12.88;11.05;;;8.10;99.90;;;;;;4895735;29;20209;-82
2020/12/12 20:09:35;;;;;;;15.32;11.75;;;8.10;99.90;;;;;;4898688;29;20235;-81
2020/12/12 20:12:04;;;;;;;14.63;12.38;;;8.10;99.90;;;;;;4898757;29;20196;-81
2020/12/12 20:14:31;;;;;;;17.20;12.50;;;8.10;99.90;;;;;;4898971;29;20234;-81
2020/12/12 20:16:59;;;;;;;14.02;11.50;;;8.10;99.90;;;;;;4898872;29;20213;-83
2020/12/12 20:19:26;;;;;;;12.77;11.45;;;8.00;99.90;;;;;;4899331;29;20255;-83
2020/12/12 20:21:55;;;;;;;13.88;11.32;;;8.10;99.90;;;;;;4928707;29;20212;-81
2020/12/12 20:24:21;;;;;;;17.25;12.80;;;8.10;99.90;;;;;;4923071;29;20195;-81
2020/12/12 20:26:49;;;;;;;15.55;12.10;;;8.10;99.90;;;;;;4922826;29;20216;-82
2020/12/12 20:29:19;;;;;;;13.20;11.80;;;8.00;99.90;;;;;;4938417;29;20225;-81
2020/12/12 20:31:46;;;;;;;14.90;12.50;;;8.00;99.90;;;;;;4940121;29;20198;-81
2020/12/12 20:34:13;;;;;;;15.20;12.98;;;8.00;99.90;;;;;;4939681;29;20209;-82
2020/12/12 20:37:17;;;;;;;14.10;12.10;;;8.00;99.90;;;;;;4940076;29;20210;-84
2020/12/12 20:39:45;;;;;;;16.00;12.20;;;8.00;99.90;;;;;;4932280;29;20215;-81
2020/12/12 20:42:11;;;;;;;16.08;12.10;;;8.10;99.90;;;;;;4937541;29;20212;-83
2020/12/12 20:45:04;;;;;;;16.67;13.68;;;8.00;99.90;;;;;;4938369;29;20242;-84
2020/12/12 20:47:34;;;;;;;14.32;12.38;;;8.10;99.90;;;;;;5039621;23;20275;-81
2020/12/12 20:50:00;;;;;;;14.52;12.98;;;8.10;99.90;;;;;;4935970;28;20285;-81
2020/12/12 20:52:27;;;;;;;14.30;12.40;;;8.10;99.90;;;;;;4929502;29;20221;-82
2020/12/12 20:54:53;;;;;;;15.07;13.48;;;8.10;99.90;;;;;;4929106;29;20221;-84
2020/12/12 20:57:22;;;;;;;14.65;12.93;;;8.10;99.90;;;;;;4937665;29;20231;-82